sensor_id;sensor_type;location;lat;lon;timestamp;P1;durP1;ratioP1;P2;durP2;ratioP2
74059;SDS011;62414;53.436;8.828;2022-10-31T00:00:47;83.65;;;33.13;;
74059;SDS011;62414;53.436;8.828;2022-10-31T00:03:13;83.17;;;34.63;;
74059;SDS011;62414;53.436;8.828;2022-10-31T00:05:40;79.47;;;34.20;;
74059;SDS011;62414;53.436;8.828;2022-10-31T00:08:06;84.45;;;35.35;;
74059;SDS011;62414;53.436;8.828;2022-10-31T00:10:31;76.30;;;34.77;;
74059;SDS011;62414;53.436;8.828;2022-10-31T00:12:57;81.80;;;34.30;;
74059;SDS011;62414;53.436;8.828;2022-10-31T00:15:24;83.03;;;36.33;;
74059;SDS011;62414;53.436;8.828;2022-10-31T00:17:49;81.70;;;34.78;;
74059;SDS011;62414;53.436;8.828;2022-10-31T00:20:14;91.97;;;35.93;;
74059;SDS011;62414;53.436;8.828;2022-10-31T00:22:40;84.70;;;34.55;;
74059;SDS011;62414;53.436;8.828;2022-10-31T00:25:05;97.93;;;38.07;;
74059;SDS011;62414;53.436;8.828;2022-10-31T00:27:31;88.53;;;36.80;;
74059;SDS011;62414;53.436;8.828;2022-10-31T00:29:57;95.37;;;38.00;;
74059;SDS011;62414;53.436;8.828;2022-10-31T00:32:24;94.00;;;37.30;;
74059;SDS011;62414;53.436;8.828;2022-10-31T00:34:49;87.57;;;34.85;;
74059;SDS011;62414;53.436;8.828;2022-10-31T00:37:15;99.50;;;38.65;;
74059;SDS011;62414;53.436;8.828;2022-10-31T00:39:43;104.93;;;39.88;;
74059;SDS011;62414;53.436;8.828;2022-10-31T00:42:08;105.77;;;39.33;;
74059;SDS011;62414;53.436;8.828;2022-10-31T00:44:34;104.13;;;39.57;;
74059;SDS011;62414;53.436;8.828;2022-10-31T00:46:59;108.00;;;41.63;;
74059;SDS011;62414;53.436;8.828;2022-10-31T00:49:26;99.43;;;40.20;;
74059;SDS011;62414;53.436;8.828;2022-10-31T00:51:51;81.25;;;35.10;;
74059;SDS011;62414;53.436;8.828;2022-10-31T00:54:17;102.17;;;40.20;;
74059;SDS011;62414;53.436;8.828;2022-10-31T00:56:43;98.15;;;38.50;;
74059;SDS011;62414;53.436;8.828;2022-10-31T00:59:08;91.93;;;37.40;;
74059;SDS011;62414;53.436;8.828;2022-10-31T01:01:34;101.13;;;39.00;;
74059;SDS011;62414;53.436;8.828;2022-10-31T01:03:59;111.50;;;41.00;;
74059;SDS011;62414;53.436;8.828;2022-10-31T01:06:26;114.27;;;41.23;;
74059;SDS011;62414;53.436;8.828;2022-10-31T01:08:55;112.18;;;40.55;;
74059;SDS011;62414;53.436;8.828;2022-10-31T01:11:21;116.25;;;41.75;;
74059;SDS011;62414;53.436;8.828;2022-10-31T01:13:49;111.20;;;41.37;;
74059;SDS011;62414;53.436;8.828;2022-10-31T01:16:17;120.82;;;41.40;;
74059;SDS011;62414;53.436;8.828;2022-10-31T01:18:44;101.38;;;37.85;;
74059;SDS011;62414;53.436;8.828;2022-10-31T01:21:10;103.27;;;38.83;;
74059;SDS011;62414;53.436;8.828;2022-10-31T01:23:38;117.35;;;41.00;;
74059;SDS011;62414;53.436;8.828;2022-10-31T01:26:05;115.43;;;40.53;;
74059;SDS011;62414;53.436;8.828;2022-10-31T01:28:33;121.80;;;40.70;;
74059;SDS011;62414;53.436;8.828;2022-10-31T01:31:02;123.50;;;40.10;;
74059;SDS011;62414;53.436;8.828;2022-10-31T01:33:29;119.83;;;39.93;;
74059;SDS011;62414;53.436;8.828;2022-10-31T01:35:55;116.80;;;40.63;;
74059;SDS011;62414;53.436;8.828;2022-10-31T01:38:20;124.20;;;40.53;;
74059;SDS011;62414;53.436;8.828;2022-10-31T01:40:47;156.13;;;44.63;;
74059;SDS011;62414;53.436;8.828;2022-10-31T01:43:13;129.00;;;42.08;;
74059;SDS011;62414;53.436;8.828;2022-10-31T01:45:39;119.97;;;40.97;;
74059;SDS011;62414;53.436;8.828;2022-10-31T01:48:06;118.80;;;41.22;;
74059;SDS011;62414;53.436;8.828;2022-10-31T01:50:37;123.00;;;40.58;;
74059;SDS011;62414;53.436;8.828;2022-10-31T01:53:04;112.87;;;38.03;;
74059;SDS011;62414;53.436;8.828;2022-10-31T01:55:32;126.13;;;39.97;;
74059;SDS011;62414;53.436;8.828;2022-10-31T01:58:04;120.28;;;38.40;;
74059;SDS011;62414;53.436;8.828;2022-10-31T02:00:32;119.03;;;38.67;;
74059;SDS011;62414;53.436;8.828;2022-10-31T02:02:58;119.73;;;37.03;;
74059;SDS011;62414;53.436;8.828;2022-10-31T02:05:24;119.25;;;37.95;;
74059;SDS011;62414;53.436;8.828;2022-10-31T02:07:54;120.63;;;39.08;;
74059;SDS011;62414;53.436;8.828;2022-10-31T02:10:27;122.43;;;37.90;;
74059;SDS011;62414;53.436;8.828;2022-10-31T02:12:56;121.13;;;37.55;;
74059;SDS011;62414;53.436;8.828;2022-10-31T02:15:25;116.38;;;36.15;;
74059;SDS011;62414;53.436;8.828;2022-10-31T02:17:51;117.15;;;36.60;;
74059;SDS011;62414;53.436;8.828;2022-10-31T02:20:18;116.03;;;35.80;;
74059;SDS011;62414;53.436;8.828;2022-10-31T02:23:00;115.60;;;35.47;;
74059;SDS011;62414;53.436;8.828;2022-10-31T02:28:52;113.18;;;34.92;;
74059;SDS011;62414;53.436;8.828;2022-10-31T02:31:37;106.70;;;35.83;;
74059;SDS011;62414;53.436;8.828;2022-10-31T02:34:10;103.20;;;34.40;;
74059;SDS011;62414;53.436;8.828;2022-10-31T02:36:47;94.43;;;33.40;;
74059;SDS011;62414;53.436;8.828;2022-10-31T02:39:18;89.72;;;31.10;;
74059;SDS011;62414;53.436;8.828;2022-10-31T02:41:50;93.97;;;33.85;;
74059;SDS011;62414;53.436;8.828;2022-10-31T02:44:22;92.35;;;32.42;;
74059;SDS011;62414;53.436;8.828;2022-10-31T02:46:56;88.95;;;31.80;;
74059;SDS011;62414;53.436;8.828;2022-10-31T02:49:27;85.13;;;30.23;;
74059;SDS011;62414;53.436;8.828;2022-10-31T02:51:58;91.80;;;30.80;;
74059;SDS011;62414;53.436;8.828;2022-10-31T02:54:24;77.17;;;28.33;;
74059;SDS011;62414;53.436;8.828;2022-10-31T02:56:54;75.77;;;28.40;;
74059;SDS011;62414;53.436;8.828;2022-10-31T02:59:24;68.85;;;26.00;;
74059;SDS011;62414;53.436;8.828;2022-10-31T03:01:54;59.47;;;24.77;;
74059;SDS011;62414;53.436;8.828;2022-10-31T03:04:40;56.60;;;23.27;;
74059;SDS011;62414;53.436;8.828;2022-10-31T03:07:16;49.85;;;21.90;;
74059;SDS011;62414;53.436;8.828;2022-10-31T03:09:51;56.10;;;22.83;;
74059;SDS011;62414;53.436;8.828;2022-10-31T03:12:22;52.83;;;21.30;;
74059;SDS011;62414;53.436;8.828;2022-10-31T03:14:54;48.25;;;20.35;;
74059;SDS011;62414;53.436;8.828;2022-10-31T03:17:28;45.17;;;19.20;;
74059;SDS011;62414;53.436;8.828;2022-10-31T03:20:00;42.45;;;18.50;;
74059;SDS011;62414;53.436;8.828;2022-10-31T03:22:29;61.23;;;22.30;;
74059;SDS011;62414;53.436;8.828;2022-10-31T03:24:57;74.60;;;25.20;;
74059;SDS011;62414;53.436;8.828;2022-10-31T03:27:25;151.65;;;30.48;;
74059;SDS011;62414;53.436;8.828;2022-10-31T03:29:52;131.43;;;32.42;;
74059;SDS011;62414;53.436;8.828;2022-10-31T03:32:23;108.00;;;31.50;;
74059;SDS011;62414;53.436;8.828;2022-10-31T03:34:53;138.83;;;30.23;;
74059;SDS011;62414;53.436;8.828;2022-10-31T03:37:23;199.93;;;34.28;;
74059;SDS011;62414;53.436;8.828;2022-10-31T03:39:52;255.85;;;32.95;;
74059;SDS011;62414;53.436;8.828;2022-10-31T03:42:25;144.38;;;31.25;;
74059;SDS011;62414;53.436;8.828;2022-10-31T03:44:55;116.30;;;30.88;;
74059;SDS011;62414;53.436;8.828;2022-10-31T03:47:26;110.17;;;29.53;;
74059;SDS011;62414;53.436;8.828;2022-10-31T03:49:53;99.65;;;28.00;;
74059;SDS011;62414;53.436;8.828;2022-10-31T03:52:21;213.50;;;29.55;;
74059;SDS011;62414;53.436;8.828;2022-10-31T03:54:54;113.00;;;29.20;;
74059;SDS011;62414;53.436;8.828;2022-10-31T03:57:29;95.50;;;28.67;;
74059;SDS011;62414;53.436;8.828;2022-10-31T04:00:04;96.40;;;27.85;;
74059;SDS011;62414;53.436;8.828;2022-10-31T04:02:32;109.30;;;27.65;;
74059;SDS011;62414;53.436;8.828;2022-10-31T04:05:02;92.38;;;26.73;;
74059;SDS011;62414;53.436;8.828;2022-10-31T04:07:30;104.88;;;27.73;;
74059;SDS011;62414;53.436;8.828;2022-10-31T04:09:59;95.33;;;28.17;;
74059;SDS011;62414;53.436;8.828;2022-10-31T04:12:27;96.28;;;27.27;;
74059;SDS011;62414;53.436;8.828;2022-10-31T04:15:16;111.55;;;28.10;;
74059;SDS011;62414;53.436;8.828;2022-10-31T04:17:44;112.93;;;29.13;;
74059;SDS011;62414;53.436;8.828;2022-10-31T04:20:16;68.97;;;26.73;;
74059;SDS011;62414;53.436;8.828;2022-10-31T04:22:42;90.30;;;28.10;;
74059;SDS011;62414;53.436;8.828;2022-10-31T04:25:08;101.07;;;27.30;;
74059;SDS011;62414;53.436;8.828;2022-10-31T04:27:37;86.40;;;27.13;;
74059;SDS011;62414;53.436;8.828;2022-10-31T04:30:02;107.88;;;27.65;;
74059;SDS011;62414;53.436;8.828;2022-10-31T04:32:31;103.03;;;27.42;;
74059;SDS011;62414;53.436;8.828;2022-10-31T04:34:57;100.93;;;27.37;;
74059;SDS011;62414;53.436;8.828;2022-10-31T04:37:24;80.03;;;28.33;;
74059;SDS011;62414;53.436;8.828;2022-10-31T04:39:49;133.10;;;28.40;;
74059;SDS011;62414;53.436;8.828;2022-10-31T04:42:33;123.47;;;29.23;;
74059;SDS011;62414;53.436;8.828;2022-10-31T04:45:02;104.57;;;29.85;;
74059;SDS011;62414;53.436;8.828;2022-10-31T04:47:30;102.50;;;31.27;;
74059;SDS011;62414;53.436;8.828;2022-10-31T04:49:56;99.37;;;31.43;;
74059;SDS011;62414;53.436;8.828;2022-10-31T04:52:23;94.55;;;30.15;;
74059;SDS011;62414;53.436;8.828;2022-10-31T04:54:50;115.83;;;30.70;;
74059;SDS011;62414;53.436;8.828;2022-10-31T04:57:41;93.35;;;29.30;;
74059;SDS011;62414;53.436;8.828;2022-10-31T05:00:07;104.05;;;29.90;;
74059;SDS011;62414;53.436;8.828;2022-10-31T05:02:33;137.32;;;30.27;;
74059;SDS011;62414;53.436;8.828;2022-10-31T05:04:59;153.37;;;30.33;;
74059;SDS011;62414;53.436;8.828;2022-10-31T05:07:26;149.48;;;32.13;;
74059;SDS011;62414;53.436;8.828;2022-10-31T05:09:53;164.20;;;33.28;;
74059;SDS011;62414;53.436;8.828;2022-10-31T05:12:19;128.23;;;32.47;;
74059;SDS011;62414;53.436;8.828;2022-10-31T05:15:05;109.67;;;31.43;;
74059;SDS011;62414;53.436;8.828;2022-10-31T05:18:09;113.00;;;30.15;;
74059;SDS011;62414;53.436;8.828;2022-10-31T05:21:13;122.00;;;29.55;;
74059;SDS011;62414;53.436;8.828;2022-10-31T05:23:46;146.05;;;29.38;;
74059;SDS011;62414;53.436;8.828;2022-10-31T05:26:11;95.40;;;29.17;;
74059;SDS011;62414;53.436;8.828;2022-10-31T05:28:37;111.00;;;30.90;;
74059;SDS011;62414;53.436;8.828;2022-10-31T05:31:02;120.37;;;30.83;;
74059;SDS011;62414;53.436;8.828;2022-10-31T05:33:29;178.70;;;32.80;;
74059;SDS011;62414;53.436;8.828;2022-10-31T05:36:13;168.70;;;31.85;;
74059;SDS011;62414;53.436;8.828;2022-10-31T05:38:52;120.78;;;31.10;;
74059;SDS011;62414;53.436;8.828;2022-10-31T05:41:24;140.00;;;31.55;;
74059;SDS011;62414;53.436;8.828;2022-10-31T05:43:50;108.47;;;32.35;;
74059;SDS011;62414;53.436;8.828;2022-10-31T05:46:19;115.27;;;30.97;;
74059;SDS011;62414;53.436;8.828;2022-10-31T05:49:03;99.28;;;30.50;;
74059;SDS011;62414;53.436;8.828;2022-10-31T05:51:47;126.60;;;31.13;;
74059;SDS011;62414;53.436;8.828;2022-10-31T05:54:14;146.93;;;31.23;;
74059;SDS011;62414;53.436;8.828;2022-10-31T05:56:40;151.98;;;30.92;;
74059;SDS011;62414;53.436;8.828;2022-10-31T05:59:05;170.40;;;30.97;;
74059;SDS011;62414;53.436;8.828;2022-10-31T06:01:31;114.38;;;31.33;;
74059;SDS011;62414;53.436;8.828;2022-10-31T06:04:03;138.98;;;29.50;;
74059;SDS011;62414;53.436;8.828;2022-10-31T06:06:29;103.45;;;29.95;;
74059;SDS011;62414;53.436;8.828;2022-10-31T06:08:54;143.80;;;29.83;;
74059;SDS011;62414;53.436;8.828;2022-10-31T06:11:23;102.70;;;29.23;;
74059;SDS011;62414;53.436;8.828;2022-10-31T06:14:01;91.20;;;28.77;;
74059;SDS011;62414;53.436;8.828;2022-10-31T06:16:55;116.72;;;28.88;;
74059;SDS011;62414;53.436;8.828;2022-10-31T06:19:40;97.65;;;29.55;;
74059;SDS011;62414;53.436;8.828;2022-10-31T06:22:07;130.07;;;28.88;;
74059;SDS011;62414;53.436;8.828;2022-10-31T06:24:33;125.13;;;28.80;;
74059;SDS011;62414;53.436;8.828;2022-10-31T06:27:25;84.55;;;28.33;;
74059;SDS011;62414;53.436;8.828;2022-10-31T06:29:51;89.35;;;27.13;;
74059;SDS011;62414;53.436;8.828;2022-10-31T06:32:26;109.72;;;28.42;;
74059;SDS011;62414;53.436;8.828;2022-10-31T06:34:51;99.60;;;27.83;;
74059;SDS011;62414;53.436;8.828;2022-10-31T06:37:17;129.50;;;28.07;;
74059;SDS011;62414;53.436;8.828;2022-10-31T06:39:45;158.10;;;27.80;;
74059;SDS011;62414;53.436;8.828;2022-10-31T06:42:14;105.97;;;28.67;;
74059;SDS011;62414;53.436;8.828;2022-10-31T06:44:43;109.13;;;28.17;;
74059;SDS011;62414;53.436;8.828;2022-10-31T06:47:27;126.10;;;26.87;;
74059;SDS011;62414;53.436;8.828;2022-10-31T06:49:55;111.40;;;26.70;;
74059;SDS011;62414;53.436;8.828;2022-10-31T06:52:22;140.50;;;27.10;;
74059;SDS011;62414;53.436;8.828;2022-10-31T06:54:49;110.75;;;26.73;;
74059;SDS011;62414;53.436;8.828;2022-10-31T06:57:15;118.37;;;27.40;;
74059;SDS011;62414;53.436;8.828;2022-10-31T06:59:40;143.60;;;27.17;;
74059;SDS011;62414;53.436;8.828;2022-10-31T07:02:08;103.63;;;26.60;;
74059;SDS011;62414;53.436;8.828;2022-10-31T07:04:34;98.47;;;26.40;;
74059;SDS011;62414;53.436;8.828;2022-10-31T07:07:00;103.50;;;27.20;;
74059;SDS011;62414;53.436;8.828;2022-10-31T07:09:26;99.73;;;26.97;;
74059;SDS011;62414;53.436;8.828;2022-10-31T07:11:53;112.60;;;26.85;;
74059;SDS011;62414;53.436;8.828;2022-10-31T07:14:19;117.80;;;25.90;;
74059;SDS011;62414;53.436;8.828;2022-10-31T07:16:49;88.37;;;26.77;;
74059;SDS011;62414;53.436;8.828;2022-10-31T07:19:15;110.97;;;26.05;;
74059;SDS011;62414;53.436;8.828;2022-10-31T07:21:41;111.88;;;25.58;;
74059;SDS011;62414;53.436;8.828;2022-10-31T07:24:08;98.68;;;26.92;;
74059;SDS011;62414;53.436;8.828;2022-10-31T07:26:39;89.63;;;27.33;;
74059;SDS011;62414;53.436;8.828;2022-10-31T07:29:04;70.50;;;26.27;;
74059;SDS011;62414;53.436;8.828;2022-10-31T07:31:30;100.57;;;26.97;;
74059;SDS011;62414;53.436;8.828;2022-10-31T07:34:03;114.43;;;27.42;;
74059;SDS011;62414;53.436;8.828;2022-10-31T07:36:34;97.18;;;26.42;;
74059;SDS011;62414;53.436;8.828;2022-10-31T07:39:02;109.13;;;25.48;;
74059;SDS011;62414;53.436;8.828;2022-10-31T07:41:29;99.03;;;25.63;;
74059;SDS011;62414;53.436;8.828;2022-10-31T07:43:55;84.47;;;26.67;;
74059;SDS011;62414;53.436;8.828;2022-10-31T07:46:39;84.23;;;25.47;;
74059;SDS011;62414;53.436;8.828;2022-10-31T07:49:24;73.22;;;24.63;;
74059;SDS011;62414;53.436;8.828;2022-10-31T07:51:49;88.43;;;27.05;;
74059;SDS011;62414;53.436;8.828;2022-10-31T07:54:33;79.97;;;27.17;;
74059;SDS011;62414;53.436;8.828;2022-10-31T07:56:58;124.67;;;23.83;;
74059;SDS011;62414;53.436;8.828;2022-10-31T07:59:24;87.27;;;22.80;;
74059;SDS011;62414;53.436;8.828;2022-10-31T08:01:49;65.88;;;22.73;;
74059;SDS011;62414;53.436;8.828;2022-10-31T08:04:31;78.63;;;21.85;;
74059;SDS011;62414;53.436;8.828;2022-10-31T08:07:16;110.70;;;21.43;;
74059;SDS011;62414;53.436;8.828;2022-10-31T08:09:48;120.45;;;21.13;;
74059;SDS011;62414;53.436;8.828;2022-10-31T08:12:23;92.45;;;20.90;;
74059;SDS011;62414;53.436;8.828;2022-10-31T08:14:49;102.27;;;21.53;;
74059;SDS011;62414;53.436;8.828;2022-10-31T08:17:17;71.72;;;21.25;;
74059;SDS011;62414;53.436;8.828;2022-10-31T08:19:52;88.25;;;20.55;;
74059;SDS011;62414;53.436;8.828;2022-10-31T08:22:23;93.78;;;20.83;;
74059;SDS011;62414;53.436;8.828;2022-10-31T08:24:48;58.77;;;20.90;;
74059;SDS011;62414;53.436;8.828;2022-10-31T08:27:14;74.43;;;20.80;;
74059;SDS011;62414;53.436;8.828;2022-10-31T08:29:39;73.13;;;20.25;;
74059;SDS011;62414;53.436;8.828;2022-10-31T08:32:05;61.70;;;19.20;;
74059;SDS011;62414;53.436;8.828;2022-10-31T08:34:58;68.93;;;19.95;;
74059;SDS011;62414;53.436;8.828;2022-10-31T08:38:02;65.82;;;19.92;;
74059;SDS011;62414;53.436;8.828;2022-10-31T08:40:28;67.45;;;20.25;;
74059;SDS011;62414;53.436;8.828;2022-10-31T08:42:56;63.85;;;20.02;;
74059;SDS011;62414;53.436;8.828;2022-10-31T08:45:23;63.83;;;20.70;;
74059;SDS011;62414;53.436;8.828;2022-10-31T08:47:49;156.35;;;21.48;;
74059;SDS011;62414;53.436;8.828;2022-10-31T08:50:17;57.83;;;21.13;;
74059;SDS011;62414;53.436;8.828;2022-10-31T08:52:45;63.40;;;20.20;;
74059;SDS011;62414;53.436;8.828;2022-10-31T08:55:11;56.10;;;21.13;;
74059;SDS011;62414;53.436;8.828;2022-10-31T08:57:42;72.28;;;19.40;;
74059;SDS011;62414;53.436;8.828;2022-10-31T09:00:09;73.95;;;19.90;;
74059;SDS011;62414;53.436;8.828;2022-10-31T09:02:54;59.93;;;18.77;;
74059;SDS011;62414;53.436;8.828;2022-10-31T09:05:22;85.75;;;18.83;;
74059;SDS011;62414;53.436;8.828;2022-10-31T09:07:48;50.42;;;18.42;;
74059;SDS011;62414;53.436;8.828;2022-10-31T09:10:13;98.43;;;18.97;;
74059;SDS011;62414;53.436;8.828;2022-10-31T09:12:40;58.15;;;19.48;;
74059;SDS011;62414;53.436;8.828;2022-10-31T09:15:24;93.50;;;18.80;;
74059;SDS011;62414;53.436;8.828;2022-10-31T09:18:04;59.65;;;18.42;;
74059;SDS011;62414;53.436;8.828;2022-10-31T09:20:42;77.85;;;18.67;;
74059;SDS011;62414;53.436;8.828;2022-10-31T09:23:11;65.07;;;18.60;;
74059;SDS011;62414;53.436;8.828;2022-10-31T09:25:38;61.60;;;19.75;;
74059;SDS011;62414;53.436;8.828;2022-10-31T09:28:24;111.10;;;19.48;;
74059;SDS011;62414;53.436;8.828;2022-10-31T09:30:51;158.85;;;19.52;;
74059;SDS011;62414;53.436;8.828;2022-10-31T09:33:38;89.30;;;20.13;;
74059;SDS011;62414;53.436;8.828;2022-10-31T09:36:23;114.63;;;19.27;;
74059;SDS011;62414;53.436;8.828;2022-10-31T09:38:49;92.63;;;19.10;;
74059;SDS011;62414;53.436;8.828;2022-10-31T09:41:18;66.55;;;18.05;;
74059;SDS011;62414;53.436;8.828;2022-10-31T09:43:50;54.28;;;18.65;;
74059;SDS011;62414;53.436;8.828;2022-10-31T09:46:30;57.60;;;18.33;;
74059;SDS011;62414;53.436;8.828;2022-10-31T09:49:05;41.13;;;18.23;;
74059;SDS011;62414;53.436;8.828;2022-10-31T09:51:50;38.17;;;18.27;;
74059;SDS011;62414;53.436;8.828;2022-10-31T09:54:26;43.95;;;18.20;;
74059;SDS011;62414;53.436;8.828;2022-10-31T09:57:00;39.60;;;17.00;;
74059;SDS011;62414;53.436;8.828;2022-10-31T09:59:28;41.42;;;16.75;;
74059;SDS011;62414;53.436;8.828;2022-10-31T10:01:56;50.40;;;16.60;;
74059;SDS011;62414;53.436;8.828;2022-10-31T10:04:29;34.00;;;16.55;;
74059;SDS011;62414;53.436;8.828;2022-10-31T10:07:11;47.47;;;17.42;;
74059;SDS011;62414;53.436;8.828;2022-10-31T10:09:42;45.92;;;16.92;;
74059;SDS011;62414;53.436;8.828;2022-10-31T10:12:22;56.45;;;18.70;;
74059;SDS011;62414;53.436;8.828;2022-10-31T10:15:06;45.40;;;18.33;;
74059;SDS011;62414;53.436;8.828;2022-10-31T10:17:48;48.50;;;19.42;;
74059;SDS011;62414;53.436;8.828;2022-10-31T10:20:25;45.33;;;18.38;;
74059;SDS011;62414;53.436;8.828;2022-10-31T10:23:02;36.17;;;18.77;;
74059;SDS011;62414;53.436;8.828;2022-10-31T10:25:49;39.70;;;19.20;;
74059;SDS011;62414;53.436;8.828;2022-10-31T10:28:26;37.57;;;19.40;;
74059;SDS011;62414;53.436;8.828;2022-10-31T10:30:56;36.78;;;19.05;;
74059;SDS011;62414;53.436;8.828;2022-10-31T10:33:27;38.70;;;19.10;;
74059;SDS011;62414;53.436;8.828;2022-10-31T10:35:57;41.08;;;20.23;;
74059;SDS011;62414;53.436;8.828;2022-10-31T10:38:28;39.15;;;19.25;;
74059;SDS011;62414;53.436;8.828;2022-10-31T10:40:59;40.37;;;21.00;;
74059;SDS011;62414;53.436;8.828;2022-10-31T10:43:29;36.10;;;17.95;;
74059;SDS011;62414;53.436;8.828;2022-10-31T10:46:00;37.45;;;19.02;;
74059;SDS011;62414;53.436;8.828;2022-10-31T10:48:41;36.00;;;18.08;;
74059;SDS011;62414;53.436;8.828;2022-10-31T10:51:10;38.47;;;18.65;;
74059;SDS011;62414;53.436;8.828;2022-10-31T10:53:50;36.73;;;18.43;;
74059;SDS011;62414;53.436;8.828;2022-10-31T10:56:30;39.33;;;18.33;;
74059;SDS011;62414;53.436;8.828;2022-10-31T10:59:06;41.22;;;19.95;;
74059;SDS011;62414;53.436;8.828;2022-10-31T11:01:36;39.15;;;18.83;;
74059;SDS011;62414;53.436;8.828;2022-10-31T11:04:03;41.28;;;19.92;;
74059;SDS011;62414;53.436;8.828;2022-10-31T11:06:33;41.37;;;18.97;;
74059;SDS011;62414;53.436;8.828;2022-10-31T11:08:59;39.55;;;19.38;;
74059;SDS011;62414;53.436;8.828;2022-10-31T11:11:34;44.67;;;20.17;;
74059;SDS011;62414;53.436;8.828;2022-10-31T11:14:00;43.05;;;20.13;;
74059;SDS011;62414;53.436;8.828;2022-10-31T11:16:29;44.03;;;21.10;;
74059;SDS011;62414;53.436;8.828;2022-10-31T11:19:08;44.70;;;21.25;;
74059;SDS011;62414;53.436;8.828;2022-10-31T11:21:41;46.38;;;21.48;;
74059;SDS011;62414;53.436;8.828;2022-10-31T11:24:12;45.80;;;21.38;;
74059;SDS011;62414;53.436;8.828;2022-10-31T11:26:41;44.83;;;21.48;;
74059;SDS011;62414;53.436;8.828;2022-10-31T11:29:11;49.27;;;21.73;;
74059;SDS011;62414;53.436;8.828;2022-10-31T11:31:39;46.38;;;21.35;;
74059;SDS011;62414;53.436;8.828;2022-10-31T11:34:06;43.83;;;21.70;;
74059;SDS011;62414;53.436;8.828;2022-10-31T11:36:38;47.67;;;22.35;;
74059;SDS011;62414;53.436;8.828;2022-10-31T11:39:14;46.45;;;22.13;;
74059;SDS011;62414;53.436;8.828;2022-10-31T11:41:42;52.33;;;22.67;;
74059;SDS011;62414;53.436;8.828;2022-10-31T11:44:10;47.45;;;22.08;;
74059;SDS011;62414;53.436;8.828;2022-10-31T11:46:39;55.53;;;24.67;;
74059;SDS011;62414;53.436;8.828;2022-10-31T11:49:11;55.42;;;24.80;;
74059;SDS011;62414;53.436;8.828;2022-10-31T11:51:40;51.58;;;23.08;;
74059;SDS011;62414;53.436;8.828;2022-10-31T11:54:05;55.93;;;24.40;;
74059;SDS011;62414;53.436;8.828;2022-10-31T11:56:42;49.67;;;22.73;;
74059;SDS011;62414;53.436;8.828;2022-10-31T11:59:15;49.67;;;21.58;;
74059;SDS011;62414;53.436;8.828;2022-10-31T12:01:46;45.87;;;21.50;;
74059;SDS011;62414;53.436;8.828;2022-10-31T12:04:12;49.15;;;20.77;;
74059;SDS011;62414;53.436;8.828;2022-10-31T12:06:39;48.95;;;21.92;;
74059;SDS011;62414;53.436;8.828;2022-10-31T12:09:10;51.27;;;22.60;;
74059;SDS011;62414;53.436;8.828;2022-10-31T12:11:46;55.83;;;23.67;;
74059;SDS011;62414;53.436;8.828;2022-10-31T12:14:26;56.47;;;24.98;;
74059;SDS011;62414;53.436;8.828;2022-10-31T12:17:00;58.58;;;25.33;;
74059;SDS011;62414;53.436;8.828;2022-10-31T12:19:32;61.50;;;25.60;;
74059;SDS011;62414;53.436;8.828;2022-10-31T12:22:08;59.13;;;24.70;;
74059;SDS011;62414;53.436;8.828;2022-10-31T12:24:57;62.05;;;24.50;;
74059;SDS011;62414;53.436;8.828;2022-10-31T12:27:40;60.83;;;24.73;;
74059;SDS011;62414;53.436;8.828;2022-10-31T12:30:17;64.53;;;25.88;;
74059;SDS011;62414;53.436;8.828;2022-10-31T12:32:52;66.22;;;26.13;;
74059;SDS011;62414;53.436;8.828;2022-10-31T12:35:34;63.17;;;24.43;;
74059;SDS011;62414;53.436;8.828;2022-10-31T12:38:10;63.88;;;24.75;;
74059;SDS011;62414;53.436;8.828;2022-10-31T12:40:56;67.00;;;25.58;;
74059;SDS011;62414;53.436;8.828;2022-10-31T12:43:36;63.10;;;23.52;;
74059;SDS011;62414;53.436;8.828;2022-10-31T12:46:10;60.35;;;22.38;;
74059;SDS011;62414;53.436;8.828;2022-10-31T12:48:48;59.83;;;22.60;;
74059;SDS011;62414;53.436;8.828;2022-10-31T12:51:26;60.80;;;23.77;;
74059;SDS011;62414;53.436;8.828;2022-10-31T12:54:02;69.57;;;28.20;;
74059;SDS011;62414;53.436;8.828;2022-10-31T12:56:41;60.83;;;22.38;;
74059;SDS011;62414;53.436;8.828;2022-10-31T12:59:17;61.80;;;23.23;;
74059;SDS011;62414;53.436;8.828;2022-10-31T13:01:49;53.90;;;22.20;;
74059;SDS011;62414;53.436;8.828;2022-10-31T13:04:21;56.35;;;23.30;;
74059;SDS011;62414;53.436;8.828;2022-10-31T13:06:58;50.92;;;20.63;;
74059;SDS011;62414;53.436;8.828;2022-10-31T13:09:27;52.88;;;21.88;;
74059;SDS011;62414;53.436;8.828;2022-10-31T13:11:58;54.90;;;22.52;;
74059;SDS011;62414;53.436;8.828;2022-10-31T13:14:29;57.77;;;22.97;;
74059;SDS011;62414;53.436;8.828;2022-10-31T13:16:59;61.90;;;24.83;;
74059;SDS011;62414;53.436;8.828;2022-10-31T13:19:27;59.40;;;26.25;;
74059;SDS011;62414;53.436;8.828;2022-10-31T13:21:57;55.42;;;22.83;;
74059;SDS011;62414;53.436;8.828;2022-10-31T13:24:30;53.20;;;23.08;;
74059;SDS011;62414;53.436;8.828;2022-10-31T13:26:59;52.50;;;21.67;;
74059;SDS011;62414;53.436;8.828;2022-10-31T13:29:30;49.13;;;21.20;;
74059;SDS011;62414;53.436;8.828;2022-10-31T13:31:59;48.10;;;20.48;;
74059;SDS011;62414;53.436;8.828;2022-10-31T13:34:25;46.35;;;20.70;;
74059;SDS011;62414;53.436;8.828;2022-10-31T13:36:57;46.95;;;20.13;;
74059;SDS011;62414;53.436;8.828;2022-10-31T13:39:30;42.23;;;19.43;;
74059;SDS011;62414;53.436;8.828;2022-10-31T13:42:04;42.88;;;19.17;;
74059;SDS011;62414;53.436;8.828;2022-10-31T13:44:40;43.33;;;19.38;;
74059;SDS011;62414;53.436;8.828;2022-10-31T13:47:20;38.92;;;18.40;;
74059;SDS011;62414;53.436;8.828;2022-10-31T13:49:47;36.65;;;17.35;;
74059;SDS011;62414;53.436;8.828;2022-10-31T13:52:16;42.00;;;17.10;;
74059;SDS011;62414;53.436;8.828;2022-10-31T13:54:47;40.20;;;17.52;;
74059;SDS011;62414;53.436;8.828;2022-10-31T13:57:16;40.42;;;16.45;;
74059;SDS011;62414;53.436;8.828;2022-10-31T13:59:47;37.13;;;15.80;;
74059;SDS011;62414;53.436;8.828;2022-10-31T14:02:16;38.95;;;16.17;;
74059;SDS011;62414;53.436;8.828;2022-10-31T14:04:44;40.42;;;16.77;;
74059;SDS011;62414;53.436;8.828;2022-10-31T14:07:12;41.95;;;17.35;;
74059;SDS011;62414;53.436;8.828;2022-10-31T14:09:39;46.88;;;18.65;;
74059;SDS011;62414;53.436;8.828;2022-10-31T14:12:22;48.30;;;19.17;;
74059;SDS011;62414;53.436;8.828;2022-10-31T14:14:52;45.83;;;18.85;;
74059;SDS011;62414;53.436;8.828;2022-10-31T14:17:22;45.33;;;18.15;;
74059;SDS011;62414;53.436;8.828;2022-10-31T14:19:59;43.92;;;17.08;;
74059;SDS011;62414;53.436;8.828;2022-10-31T14:22:45;46.10;;;17.48;;
74059;SDS011;62414;53.436;8.828;2022-10-31T14:25:26;46.80;;;17.57;;
74059;SDS011;62414;53.436;8.828;2022-10-31T14:27:54;42.10;;;17.27;;
74059;SDS011;62414;53.436;8.828;2022-10-31T14:30:23;42.85;;;17.30;;
74059;SDS011;62414;53.436;8.828;2022-10-31T14:32:51;41.38;;;15.95;;
74059;SDS011;62414;53.436;8.828;2022-10-31T14:35:19;48.97;;;18.17;;
74059;SDS011;62414;53.436;8.828;2022-10-31T14:37:55;50.03;;;18.95;;
74059;SDS011;62414;53.436;8.828;2022-10-31T14:40:33;47.67;;;17.27;;
74059;SDS011;62414;53.436;8.828;2022-10-31T14:43:11;42.45;;;16.60;;